Daily Tabular Data
[Select Refresh to Update]


6/21/18
Time         Wind Dir   Wind Spd  Wind Gust     Hum In   Humidity    Temp In       Temp  Raw Barom   Tot Rain Wind Chill Heat Ix In Heat Index  Dew Point  DailyRain   HourRain   RainRate
                            mph        mph          %          %         F         F         in         in         F         F         F         F         in         in      in/hr
12:00am           192          0          4         55         88       74.5       63.5      29.10       4.96       63.5       75.8       68.8       59.9       0.00       0.00      0.000
12:30am           180          1          3         55         88       74.4       63.3      29.09       4.96       63.3       75.7       68.6       59.7       0.00       0.00      0.000
1:00am            265          0          3         56         88       74.2       62.8      29.09       4.96       62.8       75.6       68.1       59.2       0.00       0.00      0.000
1:30am            271          0          2         56         89       74.1       62.6      29.08       4.96       62.6       75.5       68.1       59.3       0.00       0.00      0.000
2:00am            256          0          1         56         90       74.0       63.2      29.08       4.96       63.2       75.4       68.8       60.2       0.00       0.00      0.000
2:30am            291          0          0         56         90       73.9       62.9      29.07       4.96       62.9       75.3       68.5       59.9       0.00       0.00      0.000
3:00am            343          0          7         56         89       73.7       62.4      29.07       4.96       62.4       75.1       67.9       59.1       0.00       0.00      0.000
3:30am            263          0          1         56         90       73.6       63.1      29.07       4.96       63.1       75.0       68.7       60.1       0.00       0.00      0.000
4:00am            171          0          1         56         89       73.5       62.8      29.07       4.96       62.8       74.9       68.3       59.5       0.00       0.00      0.000
4:30am            158          0          2         56         88       73.4       62.8      29.07       4.96       62.8       74.8       68.1       59.2       0.00       0.00      0.000
5:00am            146          0          2         56         88       73.3       62.9      29.07       4.96       62.9       74.7       68.2       59.3       0.00       0.00      0.000
5:30am            153          0          3         56         88       73.3       62.5      29.07       4.96       62.5       74.7       67.8       58.9       0.00       0.00      0.000
6:00am            144          0          4         56         88       73.5       62.6      29.07       4.96       62.6       74.9       67.9       59.0       0.00       0.00      0.000
6:30am            148          0          2         56         88       73.4       62.9      29.08       4.96       62.9       74.8       68.2       59.3       0.00       0.00      0.000
7:00am            144          0          2         56         85       73.4       64.3      29.08       4.96       64.3       74.8       69.2       59.7       0.00       0.00      0.000
7:30am            283          0          4         57         88       73.5       63.7      29.09       4.96       63.7       75.0       69.0       60.1       0.00       0.00      0.000
8:00am            160          0          4         57         87       73.5       64.5      29.10       4.96       64.5       75.0       69.7       60.6       0.00       0.00      0.000
8:30am            347          1          4         57         86       73.6       64.9      29.10       4.96       64.9       75.1       70.0       60.6       0.00       0.00      0.000
9:00am            283          0          4         58         84       73.0       65.6      29.11       4.96       65.6       74.6       70.4       60.6       0.00       0.00      0.000
9:30am            331          0          4         59         81       73.1       67.5      29.11       4.96       67.5       74.8       71.9       61.5       0.00       0.00      0.000
10:00am           326          0          3         59         77       73.2       69.9      29.10       4.96       69.9       74.9       73.7       62.4       0.00       0.00      0.000
10:30am           309          0          7         59         73       73.7       70.9      29.10       4.96       70.9       75.4       74.2       61.8       0.00       0.00      0.000
11:00am           311          0          6         58         72       74.0       72.7      29.10       4.96       72.7       75.6       75.9       63.2       0.00       0.00      0.000
11:30am           304          3          9         57         70       74.4       73.5      29.10       4.96       73.5       75.9       76.5       63.1       0.00       0.00      0.000
12:00pm           326          0          7         57         64       74.8       76.3      29.10       4.96       76.3       76.3       78.6       63.2       0.00       0.00      0.000
12:30pm           180          5          5         57         62       75.2       78.5      29.10       4.96       78.5       76.7       80.5       64.4       0.00       0.00      0.000
1:00pm            315          3          8         57         60       75.5       79.6      29.09       4.96       79.6       77.0       81.4       64.5       0.00       0.00      0.000
1:30pm            321          2         11         57         58       75.9       80.7      29.08       4.96       80.7       77.4       82.4       64.6       0.00       0.00      0.000
2:00pm            321          2          9         57         57       76.2       81.0      29.07       4.96       81.0       77.7       82.6       64.3       0.00       0.00      0.000
2:30pm            360          5         13         56         58       76.6       80.8      29.06       4.96       80.8       78.0       82.5       64.7       0.00       0.00      0.000
3:00pm            242          1         10         57         56       77.0       81.8      29.06       4.96       81.8       78.5       83.5       64.6       0.00       0.00      0.000
3:30pm            329          4         10         56         58       77.4       81.2      29.06       4.96       81.2       78.8       83.0       65.0       0.00       0.00      0.000
4:00pm            335          2         11         51         58       77.6       80.1      29.05       4.96       80.1       78.5       81.7       64.0       0.00       0.00      0.000
4:30pm            344          3         11         47         60       76.8       79.0      29.05       4.96       79.0       77.3       80.8       63.9       0.00       0.00      0.000
5:00pm             17          7          9         46         61       76.6       78.5      29.05       4.96       78.5       77.0       80.4       63.9       0.00       0.00      0.000
5:30pm            290          5         11         47         62       76.6       77.9      29.04       4.96       77.9       77.1       79.9       63.8       0.00       0.00      0.000
6:00pm            338          2          8         45         63       76.4       76.5      29.04       4.96       76.5       76.7       78.6       63.0       0.00       0.00      0.000
6:30pm            321          2          6         45         64       76.3       76.7      29.04       4.96       76.7       76.6       79.0       63.6       0.00       0.00      0.000
7:00pm            344          0          7         54         66       77.1       75.5      29.05       4.96       75.5       78.3       78.0       63.4       0.00       0.00      0.000
7:30pm            175          0          5         54         70       76.6       72.7      29.05       4.96       72.7       77.8       75.7       62.4       0.00       0.00      0.000
8:00pm            210          3          6         55         79       75.7       68.2      29.06       4.96       68.2       77.0       72.3       61.4       0.00       0.00      0.000
8:30pm            260          0          4         57         85       74.3       65.9      29.06       4.96       65.9       75.8       70.8       61.3       0.00       0.00      0.000
9:00pm            337          0          2         59         86       73.3       65.5      29.06       4.96       65.5       75.0       70.6       61.2       0.00       0.00      0.000
9:30pm            282          0          3         58         87       74.4       66.0      29.07       4.96       66.0       76.0       71.2       62.0       0.00       0.00      0.000
10:00pm           268          0          3         57         87       74.8       65.2      29.08       4.96       65.2       76.3       70.4       61.2       0.00       0.00      0.000
10:30pm           280          0          2         57         86       74.8       66.0      29.08       4.96       66.0       76.3       71.1       61.7       0.00       0.00      0.000
11:00pm           334          2          3         57         87       74.7       64.7      29.08       4.96       64.7       76.2       69.9       60.7       0.00       0.00      0.000
11:30pm           186          0          5         57         87       74.4       64.8      29.07       4.96       64.8       75.9       70.0       60.8       0.00       0.00      0.000